sensor_id;sensor_type;location;lat;lon;timestamp;pressure;altitude;pressure_sealevel;temperature;humidity
69909;BME280;57190;47.918;8.112;2022-10-04T00:03:04;91465.97;;;5.76;82.35
69909;BME280;57190;47.918;8.112;2022-10-04T00:05:31;91470.47;;;5.76;83.39
69909;BME280;57190;47.918;8.112;2022-10-04T00:08:12;91466.72;;;5.83;82.79
69909;BME280;57190;47.918;8.112;2022-10-04T00:10:43;91467.78;;;5.94;83.75
69909;BME280;57190;47.918;8.112;2022-10-04T00:13:22;91463.41;;;5.88;82.39
69909;BME280;57190;47.918;8.112;2022-10-04T00:15:49;91461.66;;;5.63;82.63
69909;BME280;57190;47.918;8.112;2022-10-04T00:23:26;91453.72;;;5.45;83.34
69909;BME280;57190;47.918;8.112;2022-10-04T00:26:04;91454.97;;;5.42;83.03
69909;BME280;57190;47.918;8.112;2022-10-04T00:31:08;91449.88;;;5.59;82.58
69909;BME280;57190;47.918;8.112;2022-10-04T00:33:43;91450.84;;;5.65;83.25
69909;BME280;57190;47.918;8.112;2022-10-04T00:41:54;91439.41;;;5.53;82.89
69909;BME280;57190;47.918;8.112;2022-10-04T00:44:31;91439.53;;;5.39;82.97
69909;BME280;57190;47.918;8.112;2022-10-04T00:46:59;91437.34;;;5.36;83.78
69909;BME280;57190;47.918;8.112;2022-10-04T00:49:29;91434.25;;;5.39;83.32
69909;BME280;57190;47.918;8.112;2022-10-04T00:52:02;91428.75;;;5.41;83.13
69909;BME280;57190;47.918;8.112;2022-10-04T00:54:35;91432.78;;;5.43;83.21
69909;BME280;57190;47.918;8.112;2022-10-04T00:57:22;91427.63;;;5.48;83.67
69909;BME280;57190;47.918;8.112;2022-10-04T00:59:57;91423.38;;;5.47;82.60
69909;BME280;57190;47.918;8.112;2022-10-04T01:02:30;91427.88;;;5.47;83.20
69909;BME280;57190;47.918;8.112;2022-10-04T01:05:02;91413.38;;;5.49;84.32
69909;BME280;57190;47.918;8.112;2022-10-04T01:07:50;91407.06;;;5.50;83.91
69909;BME280;57190;47.918;8.112;2022-10-04T01:10:21;91412.34;;;5.50;84.05
69909;BME280;57190;47.918;8.112;2022-10-04T01:13:09;91414.63;;;5.47;83.78
69909;BME280;57190;47.918;8.112;2022-10-04T01:25:55;91412.06;;;5.40;83.89
69909;BME280;57190;47.918;8.112;2022-10-04T01:28:20;91404.34;;;5.39;83.78
69909;BME280;57190;47.918;8.112;2022-10-04T01:30:46;91408.75;;;5.45;83.88
69909;BME280;57190;47.918;8.112;2022-10-04T01:33:12;91410.38;;;5.46;83.61
69909;BME280;57190;47.918;8.112;2022-10-04T01:35:37;91405.44;;;5.49;84.33
69909;BME280;57190;47.918;8.112;2022-10-04T01:38:04;91408.44;;;5.53;84.27
69909;BME280;57190;47.918;8.112;2022-10-04T01:40:35;91402.66;;;5.44;83.71
69909;BME280;57190;47.918;8.112;2022-10-04T01:43:09;91392.50;;;5.41;84.13
69909;BME280;57190;47.918;8.112;2022-10-04T01:45:46;91399.28;;;5.37;83.86
69909;BME280;57190;47.918;8.112;2022-10-04T01:48:21;91396.06;;;5.35;83.38
69909;BME280;57190;47.918;8.112;2022-10-04T01:51:02;91397.22;;;5.39;83.58
69909;BME280;57190;47.918;8.112;2022-10-04T01:53:33;91393.91;;;5.44;83.76
69909;BME280;57190;47.918;8.112;2022-10-04T01:56:09;91392.81;;;5.51;84.11
69909;BME280;57190;47.918;8.112;2022-10-04T01:58:44;91389.47;;;5.56;84.46
69909;BME280;57190;47.918;8.112;2022-10-04T02:01:28;91381.06;;;5.59;84.61
69909;BME280;57190;47.918;8.112;2022-10-04T02:06:29;91373.38;;;5.58;84.75
69909;BME280;57190;47.918;8.112;2022-10-04T02:09:07;91368.63;;;5.48;83.40
69909;BME280;57190;47.918;8.112;2022-10-04T02:11:33;91374.53;;;5.31;83.00
69909;BME280;57190;47.918;8.112;2022-10-04T02:13:59;91379.09;;;5.24;82.89
69909;BME280;57190;47.918;8.112;2022-10-04T02:16:25;91368.59;;;5.17;83.19
69909;BME280;57190;47.918;8.112;2022-10-04T02:18:52;91367.19;;;5.15;83.30
69909;BME280;57190;47.918;8.112;2022-10-04T02:21:20;91363.66;;;5.21;83.12
69909;BME280;57190;47.918;8.112;2022-10-04T02:23:47;91361.00;;;5.21;83.07
69909;BME280;57190;47.918;8.112;2022-10-04T02:26:13;91355.84;;;5.26;83.09
69909;BME280;57190;47.918;8.112;2022-10-04T02:28:38;91359.31;;;5.27;82.40
69909;BME280;57190;47.918;8.112;2022-10-04T02:31:05;91351.81;;;5.24;83.61
69909;BME280;57190;47.918;8.112;2022-10-04T02:34:09;91350.78;;;5.25;82.96
69909;BME280;57190;47.918;8.112;2022-10-04T02:36:36;91349.69;;;5.32;83.68
69909;BME280;57190;47.918;8.112;2022-10-04T02:39:13;91356.06;;;5.43;84.24
69909;BME280;57190;47.918;8.112;2022-10-04T02:41:49;91353.38;;;5.31;82.60
69909;BME280;57190;47.918;8.112;2022-10-04T02:44:20;91350.97;;;5.11;82.82
69909;BME280;57190;47.918;8.112;2022-10-04T02:46:55;91355.97;;;5.01;82.46
69909;BME280;57190;47.918;8.112;2022-10-04T02:49:54;91355.22;;;4.94;82.62
69909;BME280;57190;47.918;8.112;2022-10-04T02:52:23;91348.38;;;4.86;82.76
69909;BME280;57190;47.918;8.112;2022-10-04T02:55:10;91357.34;;;4.85;82.99
69909;BME280;57190;47.918;8.112;2022-10-04T02:57:41;91346.84;;;4.97;83.37
69909;BME280;57190;47.918;8.112;2022-10-04T03:03:10;91353.75;;;5.16;82.67
69909;BME280;57190;47.918;8.112;2022-10-04T03:05:37;91339.78;;;5.09;83.45
69909;BME280;57190;47.918;8.112;2022-10-04T03:08:05;91350.31;;;5.16;83.59
69909;BME280;57190;47.918;8.112;2022-10-04T03:10:31;91350.13;;;5.29;83.59
69909;BME280;57190;47.918;8.112;2022-10-04T03:12:57;91343.56;;;5.32;83.95
69909;BME280;57190;47.918;8.112;2022-10-04T03:15:23;91341.91;;;5.19;83.09
69909;BME280;57190;47.918;8.112;2022-10-04T03:17:49;91339.72;;;4.97;82.36
69909;BME280;57190;47.918;8.112;2022-10-04T03:20:15;91340.16;;;4.76;82.13
69909;BME280;57190;47.918;8.112;2022-10-04T03:22:48;91338.78;;;4.73;83.13
69909;BME280;57190;47.918;8.112;2022-10-04T03:25:19;91342.81;;;4.76;83.27
69909;BME280;57190;47.918;8.112;2022-10-04T03:27:46;91340.53;;;4.79;83.90
69909;BME280;57190;47.918;8.112;2022-10-04T03:30:14;91338.84;;;4.85;83.50
69909;BME280;57190;47.918;8.112;2022-10-04T03:32:40;91340.69;;;4.84;83.48
69909;BME280;57190;47.918;8.112;2022-10-04T03:35:16;91350.72;;;4.76;83.13
69909;BME280;57190;47.918;8.112;2022-10-04T03:37:45;91341.56;;;4.78;83.78
69909;BME280;57190;47.918;8.112;2022-10-04T03:40:11;91329.09;;;4.85;83.85
69909;BME280;57190;47.918;8.112;2022-10-04T03:42:38;91334.38;;;4.85;83.42
69909;BME280;57190;47.918;8.112;2022-10-04T03:45:13;91337.22;;;4.84;83.95
69909;BME280;57190;47.918;8.112;2022-10-04T03:47:43;91340.16;;;4.76;82.69
69909;BME280;57190;47.918;8.112;2022-10-04T03:50:20;91340.00;;;4.52;82.00
69909;BME280;57190;47.918;8.112;2022-10-04T03:53:16;91344.22;;;4.34;81.53
69909;BME280;57190;47.918;8.112;2022-10-04T03:55:48;91341.16;;;4.37;82.48
69909;BME280;57190;47.918;8.112;2022-10-04T03:58:16;91338.19;;;4.52;83.04
69909;BME280;57190;47.918;8.112;2022-10-04T04:03:44;91335.69;;;4.76;83.14
69909;BME280;57190;47.918;8.112;2022-10-04T04:06:14;91327.47;;;4.84;82.61
69909;BME280;57190;47.918;8.112;2022-10-04T04:08:42;91331.63;;;4.92;83.13
69909;BME280;57190;47.918;8.112;2022-10-04T04:11:20;91328.78;;;4.94;82.67
69909;BME280;57190;47.918;8.112;2022-10-04T04:13:59;91329.16;;;4.97;82.72
69909;BME280;57190;47.918;8.112;2022-10-04T04:16:28;91335.47;;;4.96;83.23
69909;BME280;57190;47.918;8.112;2022-10-04T04:18:58;91338.91;;;4.97;82.85
69909;BME280;57190;47.918;8.112;2022-10-04T04:21:26;91336.44;;;5.02;83.64
69909;BME280;57190;47.918;8.112;2022-10-04T04:24:04;91339.94;;;5.14;83.84
69909;BME280;57190;47.918;8.112;2022-10-04T04:26:37;91331.09;;;5.20;83.63
69909;BME280;57190;47.918;8.112;2022-10-04T04:35:39;91338.25;;;5.20;83.78
69909;BME280;57190;47.918;8.112;2022-10-04T04:38:24;91335.47;;;5.15;83.71
69909;BME280;57190;47.918;8.112;2022-10-04T04:40:51;91342.66;;;5.08;83.60
69909;BME280;57190;47.918;8.112;2022-10-04T04:43:21;91343.09;;;4.86;82.82
69909;BME280;57190;47.918;8.112;2022-10-04T04:45:49;91341.41;;;4.73;83.84
69909;BME280;57190;47.918;8.112;2022-10-04T04:48:16;91337.97;;;4.72;83.36
69909;BME280;57190;47.918;8.112;2022-10-04T04:50:51;91343.81;;;4.75;84.53
69909;BME280;57190;47.918;8.112;2022-10-04T04:53:21;91340.16;;;4.76;83.81
69909;BME280;57190;47.918;8.112;2022-10-04T04:55:50;91350.66;;;4.64;83.33
69909;BME280;57190;47.918;8.112;2022-10-04T04:58:23;91356.06;;;4.50;83.12
69909;BME280;57190;47.918;8.112;2022-10-04T05:01:02;91353.66;;;4.49;83.01
69909;BME280;57190;47.918;8.112;2022-10-04T05:03:29;91342.69;;;4.45;83.54
69909;BME280;57190;47.918;8.112;2022-10-04T05:05:55;91342.13;;;4.43;83.88
69909;BME280;57190;47.918;8.112;2022-10-04T05:08:27;91342.56;;;4.40;83.69
69909;BME280;57190;47.918;8.112;2022-10-04T05:13:57;91344.97;;;4.41;83.03
69909;BME280;57190;47.918;8.112;2022-10-04T05:16:47;91346.38;;;4.44;83.21
69909;BME280;57190;47.918;8.112;2022-10-04T05:19:23;91345.13;;;4.47;84.01
69909;BME280;57190;47.918;8.112;2022-10-04T05:21:53;91345.50;;;4.50;84.10
69909;BME280;57190;47.918;8.112;2022-10-04T05:24:26;91344.50;;;4.70;84.23
69909;BME280;57190;47.918;8.112;2022-10-04T05:26:59;91332.22;;;4.76;84.09
69909;BME280;57190;47.918;8.112;2022-10-04T05:29:29;91338.47;;;4.81;83.78
69909;BME280;57190;47.918;8.112;2022-10-04T05:34:42;91337.31;;;4.77;83.72
69909;BME280;57190;47.918;8.112;2022-10-04T05:42:41;91345.25;;;4.77;84.08
69909;BME280;57190;47.918;8.112;2022-10-04T05:47:42;91341.28;;;4.68;83.65
69909;BME280;57190;47.918;8.112;2022-10-04T05:50:22;91334.00;;;4.63;83.13
69909;BME280;57190;47.918;8.112;2022-10-04T05:52:50;91341.03;;;4.69;84.13
69909;BME280;57190;47.918;8.112;2022-10-04T06:04:28;91343.69;;;4.88;83.20
69909;BME280;57190;47.918;8.112;2022-10-04T06:10:18;91334.56;;;5.21;83.96
69909;BME280;57190;47.918;8.112;2022-10-04T06:16:04;91346.75;;;5.41;84.03
69909;BME280;57190;47.918;8.112;2022-10-04T06:18:47;91336.03;;;5.47;83.81
69909;BME280;57190;47.918;8.112;2022-10-04T06:21:21;91339.41;;;5.55;83.82
69909;BME280;57190;47.918;8.112;2022-10-04T06:26:39;91347.31;;;5.73;83.27
69909;BME280;57190;47.918;8.112;2022-10-04T06:29:10;91345.00;;;5.77;84.05
69909;BME280;57190;47.918;8.112;2022-10-04T06:32:04;91339.63;;;5.83;84.00
69909;BME280;57190;47.918;8.112;2022-10-04T06:40:17;91348.94;;;6.17;84.51
69909;BME280;57190;47.918;8.112;2022-10-04T07:00:17;91365.69;;;6.53;82.53
69909;BME280;57190;47.918;8.112;2022-10-04T07:02:57;91369.25;;;6.70;82.26
69909;BME280;57190;47.918;8.112;2022-10-04T07:05:34;91364.75;;;6.83;82.04
69909;BME280;57190;47.918;8.112;2022-10-04T07:08:32;91364.16;;;6.81;81.62
69909;BME280;57190;47.918;8.112;2022-10-04T07:16:48;91381.34;;;6.90;80.85
69909;BME280;57190;47.918;8.112;2022-10-04T07:22:13;91377.28;;;7.11;81.30
69909;BME280;57190;47.918;8.112;2022-10-04T07:27:13;91391.81;;;7.20;80.78
69909;BME280;57190;47.918;8.112;2022-10-04T07:29:42;91397.44;;;7.24;79.93
69909;BME280;57190;47.918;8.112;2022-10-04T07:32:34;91399.19;;;7.30;79.79
69909;BME280;57190;47.918;8.112;2022-10-04T07:37:59;91403.88;;;7.52;79.00
69909;BME280;57190;47.918;8.112;2022-10-04T07:40:33;91399.31;;;7.64;79.38
69909;BME280;57190;47.918;8.112;2022-10-04T07:43:05;91399.16;;;7.83;79.66
69909;BME280;57190;47.918;8.112;2022-10-04T07:45:34;91399.91;;;7.95;79.61
69909;BME280;57190;47.918;8.112;2022-10-04T07:48:20;91397.34;;;8.00;80.06
69909;BME280;57190;47.918;8.112;2022-10-04T07:59:41;91394.28;;;9.06;75.81
69909;BME280;57190;47.918;8.112;2022-10-04T08:02:40;91386.03;;;9.69;74.92
69909;BME280;57190;47.918;8.112;2022-10-04T08:05:22;91389.88;;;10.00;74.89
69909;BME280;57190;47.918;8.112;2022-10-04T08:08:21;91394.72;;;10.31;74.11
69909;BME280;57190;47.918;8.112;2022-10-04T08:13:32;91397.97;;;10.11;74.51
69909;BME280;57190;47.918;8.112;2022-10-04T08:16:11;91396.69;;;10.41;74.00
69909;BME280;57190;47.918;8.112;2022-10-04T08:19:14;91400.94;;;10.69;74.16
69909;BME280;57190;47.918;8.112;2022-10-04T08:25:00;91393.53;;;14.30;63.97
69909;BME280;57190;47.918;8.112;2022-10-04T08:39:35;91390.56;;;14.37;62.21
69909;BME280;57190;47.918;8.112;2022-10-04T09:07:21;91411.25;;;13.25;66.74
69909;BME280;57190;47.918;8.112;2022-10-04T09:10:43;91411.28;;;13.09;67.03
69909;BME280;57190;47.918;8.112;2022-10-04T09:16:52;91420.38;;;12.87;68.10
69909;BME280;57190;47.918;8.112;2022-10-04T09:24:37;91412.34;;;13.13;68.35
69909;BME280;57190;47.918;8.112;2022-10-04T09:27:33;91406.97;;;13.29;68.34
69909;BME280;57190;47.918;8.112;2022-10-04T09:58:21;91390.81;;;13.75;67.65
69909;BME280;57190;47.918;8.112;2022-10-04T10:09:19;91380.91;;;13.71;66.49
69909;BME280;57190;47.918;8.112;2022-10-04T10:12:55;91388.63;;;13.93;64.74
69909;BME280;57190;47.918;8.112;2022-10-04T10:18:38;91404.72;;;13.88;63.72
69909;BME280;57190;47.918;8.112;2022-10-04T10:30:23;91393.34;;;14.17;63.08
69909;BME280;57190;47.918;8.112;2022-10-04T11:07:02;91396.84;;;14.72;62.20
69909;BME280;57190;47.918;8.112;2022-10-04T11:10:07;91393.25;;;14.82;62.37
69909;BME280;57190;47.918;8.112;2022-10-04T11:12:55;91392.44;;;14.87;61.37
69909;BME280;57190;47.918;8.112;2022-10-04T11:43:50;91373.06;;;15.19;60.88
69909;BME280;57190;47.918;8.112;2022-10-04T11:46:08;91367.91;;;15.28;60.91
69909;BME280;57190;47.918;8.112;2022-10-04T11:58:51;91361.34;;;15.39;59.32
69909;BME280;57190;47.918;8.112;2022-10-04T12:07:25;91366.06;;;15.53;59.35
69909;BME280;57190;47.918;8.112;2022-10-04T12:10:23;91360.63;;;15.58;59.05
69909;BME280;57190;47.918;8.112;2022-10-04T12:15:39;91358.41;;;15.65;58.87
69909;BME280;57190;47.918;8.112;2022-10-04T12:21:43;91365.25;;;15.77;58.33
69909;BME280;57190;47.918;8.112;2022-10-04T12:24:38;91364.09;;;15.88;57.77
69909;BME280;57190;47.918;8.112;2022-10-04T12:41:40;91362.53;;;16.06;58.11
69909;BME280;57190;47.918;8.112;2022-10-04T12:47:26;91355.84;;;16.03;58.46
69909;BME280;57190;47.918;8.112;2022-10-04T12:50:33;91361.16;;;16.09;58.19
69909;BME280;57190;47.918;8.112;2022-10-04T12:56:19;91346.25;;;16.16;57.64
69909;BME280;57190;47.918;8.112;2022-10-04T13:02:04;91347.56;;;16.19;58.15
69909;BME280;57190;47.918;8.112;2022-10-04T13:04:35;91347.75;;;16.28;58.46
69909;BME280;57190;47.918;8.112;2022-10-04T13:15:42;91350.09;;;16.54;57.23
69909;BME280;57190;47.918;8.112;2022-10-04T13:20:59;91351.81;;;16.63;56.03
69909;BME280;57190;47.918;8.112;2022-10-04T13:23:56;91347.66;;;16.71;55.92
69909;BME280;57190;47.918;8.112;2022-10-04T13:26:38;91356.97;;;16.79;54.90
69909;BME280;57190;47.918;8.112;2022-10-04T13:29:29;91357.19;;;16.82;54.31
69909;BME280;57190;47.918;8.112;2022-10-04T13:32:16;91357.91;;;16.88;54.24
69909;BME280;57190;47.918;8.112;2022-10-04T13:40:20;91363.09;;;17.04;53.90
69909;BME280;57190;47.918;8.112;2022-10-04T13:51:38;91368.66;;;17.26;52.04
69909;BME280;57190;47.918;8.112;2022-10-04T13:54:28;91367.56;;;17.27;51.63
69909;BME280;57190;47.918;8.112;2022-10-04T13:57:21;91365.88;;;17.32;51.51
69909;BME280;57190;47.918;8.112;2022-10-04T13:59:58;91363.59;;;17.39;50.72
69909;BME280;57190;47.918;8.112;2022-10-04T14:11:19;91372.53;;;17.67;54.71
69909;BME280;57190;47.918;8.112;2022-10-04T14:41:58;91362.38;;;17.92;52.55
69909;BME280;57190;47.918;8.112;2022-10-04T14:51:02;91355.28;;;17.82;52.55
69909;BME280;57190;47.918;8.112;2022-10-04T14:53:04;91354.56;;;17.76;50.60
69909;BME280;57190;47.918;8.112;2022-10-04T15:06:35;91353.13;;;17.51;50.25
69909;BME280;57190;47.918;8.112;2022-10-04T15:11:49;91349.97;;;17.16;52.56
69909;BME280;57190;47.918;8.112;2022-10-04T15:14:38;91351.53;;;17.03;53.26
69909;BME280;57190;47.918;8.112;2022-10-04T15:17:23;91350.84;;;16.92;53.19
69909;BME280;57190;47.918;8.112;2022-10-04T15:23:28;91349.03;;;16.69;55.02
69909;BME280;57190;47.918;8.112;2022-10-04T15:26:35;91345.13;;;16.61;54.66
69909;BME280;57190;47.918;8.112;2022-10-04T15:29:06;91344.41;;;16.55;54.26
69909;BME280;57190;47.918;8.112;2022-10-04T15:32:05;91344.19;;;16.52;55.00
69909;BME280;57190;47.918;8.112;2022-10-04T15:37:57;91340.75;;;16.27;56.78
69909;BME280;57190;47.918;8.112;2022-10-04T15:40:31;91332.38;;;16.09;57.70
69909;BME280;57190;47.918;8.112;2022-10-04T15:43:35;91333.88;;;15.96;59.52
69909;BME280;57190;47.918;8.112;2022-10-04T15:48:48;91336.97;;;15.84;60.17
69909;BME280;57190;47.918;8.112;2022-10-04T15:56:59;91342.84;;;15.62;61.61
69909;BME280;57190;47.918;8.112;2022-10-04T15:59:57;91343.69;;;15.57;61.80
69909;BME280;57190;47.918;8.112;2022-10-04T16:02:50;91339.50;;;15.46;62.02
69909;BME280;57190;47.918;8.112;2022-10-04T16:10:58;91331.97;;;15.19;63.44
69909;BME280;57190;47.918;8.112;2022-10-04T16:32:12;91348.00;;;14.60;66.78
69909;BME280;57190;47.918;8.112;2022-10-04T16:34:49;91343.47;;;14.55;67.08
69909;BME280;57190;47.918;8.112;2022-10-04T16:47:59;91369.47;;;14.15;68.17
69909;BME280;57190;47.918;8.112;2022-10-04T16:55:56;91372.31;;;13.84;69.30
69909;BME280;57190;47.918;8.112;2022-10-04T17:09:31;91382.56;;;13.35;71.09
69909;BME280;57190;47.918;8.112;2022-10-04T17:12:42;91387.97;;;13.10;71.48
69909;BME280;57190;47.918;8.112;2022-10-04T17:18:04;91402.69;;;12.81;72.35
69909;BME280;57190;47.918;8.112;2022-10-04T17:28:33;91403.22;;;12.57;73.44
69909;BME280;57190;47.918;8.112;2022-10-04T17:31:43;91399.44;;;12.48;73.83
69909;BME280;57190;47.918;8.112;2022-10-04T17:39:53;91396.47;;;12.24;74.61
69909;BME280;57190;47.918;8.112;2022-10-04T17:48:01;91405.78;;;12.16;75.29
69909;BME280;57190;47.918;8.112;2022-10-04T17:51:07;91406.06;;;12.15;75.40
69909;BME280;57190;47.918;8.112;2022-10-04T17:54:12;91400.69;;;11.99;75.73
69909;BME280;57190;47.918;8.112;2022-10-04T17:59:41;91397.81;;;11.63;76.65
69909;BME280;57190;47.918;8.112;2022-10-04T18:02:52;91394.34;;;11.62;76.96
69909;BME280;57190;47.918;8.112;2022-10-04T18:05:27;91395.41;;;11.61;77.07
69909;BME280;57190;47.918;8.112;2022-10-04T18:08:02;91395.66;;;11.60;77.43
69909;BME280;57190;47.918;8.112;2022-10-04T18:10:34;91381.47;;;11.54;77.88
69909;BME280;57190;47.918;8.112;2022-10-04T18:13:13;91387.34;;;11.51;77.86
69909;BME280;57190;47.918;8.112;2022-10-04T18:16:15;91382.22;;;11.44;77.90
69909;BME280;57190;47.918;8.112;2022-10-04T18:18:44;91388.34;;;11.40;77.79
69909;BME280;57190;47.918;8.112;2022-10-04T18:21:23;91384.06;;;11.39;77.83
69909;BME280;57190;47.918;8.112;2022-10-04T18:26:20;91385.09;;;10.90;77.21
69909;BME280;57190;47.918;8.112;2022-10-04T18:28:48;91388.72;;;10.78;77.48
69909;BME280;57190;47.918;8.112;2022-10-04T18:36:14;91391.88;;;10.70;77.83
69909;BME280;57190;47.918;8.112;2022-10-04T18:41:25;91398.84;;;10.44;78.34
69909;BME280;57190;47.918;8.112;2022-10-04T18:44:23;91395.44;;;10.48;78.54
69909;BME280;57190;47.918;8.112;2022-10-04T18:46:58;91406.94;;;10.54;78.78
69909;BME280;57190;47.918;8.112;2022-10-04T18:49:45;91405.69;;;10.62;78.97
69909;BME280;57190;47.918;8.112;2022-10-04T18:57:40;91410.53;;;10.70;78.78
69909;BME280;57190;47.918;8.112;2022-10-04T19:00:33;91407.91;;;10.43;77.76
69909;BME280;57190;47.918;8.112;2022-10-04T19:11:43;91426.44;;;10.32;79.73
69909;BME280;57190;47.918;8.112;2022-10-04T19:14:16;91424.53;;;10.28;79.53
69909;BME280;57190;47.918;8.112;2022-10-04T19:19:28;91425.75;;;9.93;79.13
69909;BME280;57190;47.918;8.112;2022-10-04T19:22:20;91433.44;;;9.89;79.84
69909;BME280;57190;47.918;8.112;2022-10-04T19:27:40;91428.41;;;9.93;79.50
69909;BME280;57190;47.918;8.112;2022-10-04T19:30:24;91427.84;;;9.90;79.88
69909;BME280;57190;47.918;8.112;2022-10-04T19:33:18;91438.44;;;9.85;79.83
69909;BME280;57190;47.918;8.112;2022-10-04T19:49:52;91443.88;;;9.51;80.06
69909;BME280;57190;47.918;8.112;2022-10-04T19:52:42;91448.84;;;9.42;80.11
69909;BME280;57190;47.918;8.112;2022-10-04T19:58:36;91458.28;;;9.33;80.19
69909;BME280;57190;47.918;8.112;2022-10-04T20:01:12;91460.53;;;9.41;80.12
69909;BME280;57190;47.918;8.112;2022-10-04T20:03:38;91457.38;;;9.44;80.20
69909;BME280;57190;47.918;8.112;2022-10-04T20:06:05;91449.06;;;9.41;79.95
69909;BME280;57190;47.918;8.112;2022-10-04T20:08:50;91454.25;;;9.31;79.81
69909;BME280;57190;47.918;8.112;2022-10-04T20:19:18;91461.84;;;9.22;80.27
69909;BME280;57190;47.918;8.112;2022-10-04T20:21:44;91473.06;;;9.24;80.36
69909;BME280;57190;47.918;8.112;2022-10-04T20:27:00;91470.06;;;9.03;79.55
69909;BME280;57190;47.918;8.112;2022-10-04T20:32:03;91465.25;;;9.00;79.29
69909;BME280;57190;47.918;8.112;2022-10-04T20:34:46;91475.06;;;9.00;78.70
69909;BME280;57190;47.918;8.112;2022-10-04T20:37:12;91465.75;;;8.80;78.93
69909;BME280;57190;47.918;8.112;2022-10-04T20:44:58;91460.97;;;8.65;79.21
69909;BME280;57190;47.918;8.112;2022-10-04T20:50:13;91473.88;;;8.73;78.47
69909;BME280;57190;47.918;8.112;2022-10-04T20:52:44;91478.03;;;8.69;78.40
69909;BME280;57190;47.918;8.112;2022-10-04T20:55:18;91471.34;;;8.67;77.80
69909;BME280;57190;47.918;8.112;2022-10-04T20:57:44;91469.66;;;8.60;77.88
69909;BME280;57190;47.918;8.112;2022-10-04T21:00:24;91477.38;;;8.62;76.80
69909;BME280;57190;47.918;8.112;2022-10-04T21:03:08;91477.69;;;8.48;76.55
69909;BME280;57190;47.918;8.112;2022-10-04T21:05:37;91480.47;;;8.42;76.16
69909;BME280;57190;47.918;8.112;2022-10-04T21:08:23;91481.09;;;8.32;76.81
69909;BME280;57190;47.918;8.112;2022-10-04T21:11:19;91485.38;;;8.33;75.70
69909;BME280;57190;47.918;8.112;2022-10-04T21:13:51;91494.97;;;8.34;75.44
69909;BME280;57190;47.918;8.112;2022-10-04T21:16:43;91490.06;;;8.43;75.33
69909;BME280;57190;47.918;8.112;2022-10-04T21:22:04;91490.31;;;8.41;74.29
69909;BME280;57190;47.918;8.112;2022-10-04T21:27:31;91491.56;;;8.51;73.82
69909;BME280;57190;47.918;8.112;2022-10-04T21:29:57;91495.75;;;8.34;74.63
69909;BME280;57190;47.918;8.112;2022-10-04T21:32:24;91493.69;;;8.37;74.82
69909;BME280;57190;47.918;8.112;2022-10-04T21:34:50;91492.97;;;8.41;74.55
69909;BME280;57190;47.918;8.112;2022-10-04T21:37:16;91495.63;;;8.41;74.77
69909;BME280;57190;47.918;8.112;2022-10-04T21:39:42;91491.81;;;8.37;75.09
69909;BME280;57190;47.918;8.112;2022-10-04T21:42:07;91502.44;;;8.37;75.39
69909;BME280;57190;47.918;8.112;2022-10-04T21:44:33;91492.53;;;8.32;75.13
69909;BME280;57190;47.918;8.112;2022-10-04T21:46:59;91491.81;;;8.37;74.36
69909;BME280;57190;47.918;8.112;2022-10-04T21:49:24;91497.13;;;8.37;74.02
69909;BME280;57190;47.918;8.112;2022-10-04T21:51:50;91488.94;;;8.39;73.99
69909;BME280;57190;47.918;8.112;2022-10-04T21:54:15;91494.38;;;8.32;73.93
69909;BME280;57190;47.918;8.112;2022-10-04T21:56:41;91488.03;;;8.33;74.56
69909;BME280;57190;47.918;8.112;2022-10-04T21:59:06;91486.31;;;8.27;74.53
69909;BME280;57190;47.918;8.112;2022-10-04T22:01:32;91490.75;;;8.21;74.70
69909;BME280;57190;47.918;8.112;2022-10-04T22:03:57;91488.63;;;8.23;73.76
69909;BME280;57190;47.918;8.112;2022-10-04T22:06:23;91486.59;;;8.13;74.28
69909;BME280;57190;47.918;8.112;2022-10-04T22:08:48;91486.31;;;8.27;73.43
69909;BME280;57190;47.918;8.112;2022-10-04T22:11:14;91484.34;;;8.34;72.99
69909;BME280;57190;47.918;8.112;2022-10-04T22:13:39;91481.88;;;8.32;73.07
69909;BME280;57190;47.918;8.112;2022-10-04T22:16:05;91487.19;;;8.32;73.62
69909;BME280;57190;47.918;8.112;2022-10-04T22:18:31;91491.81;;;8.37;73.23
69909;BME280;57190;47.918;8.112;2022-10-04T22:20:58;91494.00;;;8.40;73.18
69909;BME280;57190;47.918;8.112;2022-10-04T22:23:26;91484.72;;;8.55;73.18
69909;BME280;57190;47.918;8.112;2022-10-04T22:25:52;91491.97;;;8.59;73.18
69909;BME280;57190;47.918;8.112;2022-10-04T22:28:29;91485.28;;;8.57;73.87
69909;BME280;57190;47.918;8.112;2022-10-04T22:30:55;91490.31;;;8.41;74.05
69909;BME280;57190;47.918;8.112;2022-10-04T22:33:32;91489.66;;;8.34;74.24
69909;BME280;57190;47.918;8.112;2022-10-04T22:36:12;91485.03;;;8.29;75.16
69909;BME280;57190;47.918;8.112;2022-10-04T22:38:38;91490.75;;;8.21;74.84
69909;BME280;57190;47.918;8.112;2022-10-04T22:41:11;91489.59;;;8.17;75.07
69909;BME280;57190;47.918;8.112;2022-10-04T22:43:37;91485.09;;;8.17;75.19
69909;BME280;57190;47.918;8.112;2022-10-04T22:46:02;91486.34;;;8.15;74.94
69909;BME280;57190;47.918;8.112;2022-10-04T22:48:28;91487.22;;;8.03;75.43
69909;BME280;57190;47.918;8.112;2022-10-04T22:50:53;91483.19;;;8.01;75.55
69909;BME280;57190;47.918;8.112;2022-10-04T22:53:21;91484.56;;;8.03;75.58
69909;BME280;57190;47.918;8.112;2022-10-04T22:55:51;91479.13;;;7.98;75.39
69909;BME280;57190;47.918;8.112;2022-10-04T22:58:17;91480.91;;;7.93;75.44
69909;BME280;57190;47.918;8.112;2022-10-04T23:00:45;91481.69;;;7.93;75.63
69909;BME280;57190;47.918;8.112;2022-10-04T23:03:31;91478.13;;;7.87;75.33
69909;BME280;57190;47.918;8.112;2022-10-04T23:05:58;91477.34;;;7.75;75.88
69909;BME280;57190;47.918;8.112;2022-10-04T23:08:24;91472.84;;;7.76;75.99
69909;BME280;57190;47.918;8.112;2022-10-04T23:10:57;91481.16;;;7.79;76.14
69909;BME280;57190;47.918;8.112;2022-10-04T23:13:24;91470.41;;;7.86;76.28
69909;BME280;57190;47.918;8.112;2022-10-04T23:15:51;91461.94;;;7.89;76.51
69909;BME280;57190;47.918;8.112;2022-10-04T23:18:17;91467.47;;;7.99;76.66
69909;BME280;57190;47.918;8.112;2022-10-04T23:20:47;91463.31;;;8.03;76.83
69909;BME280;57190;47.918;8.112;2022-10-04T23:23:13;91463.06;;;8.05;77.11
69909;BME280;57190;47.918;8.112;2022-10-04T23:25:48;91464.09;;;8.04;77.24